createdAt,value
2023-05-03T00:00:05.643Z,0.00
2023-05-03T00:01:05.388Z,0.00
2023-05-03T00:02:05.453Z,0.00
2023-05-03T00:03:05.462Z,0.00
2023-05-03T00:04:05.466Z,0.00
2023-05-03T00:05:06.087Z,0.00
2023-05-03T00:06:05.524Z,0.00
2023-05-03T00:07:05.547Z,0.00
2023-05-03T00:08:05.571Z,0.00
2023-05-03T00:09:05.609Z,0.00
2023-05-03T00:10:05.838Z,0.00
2023-05-03T00:11:05.632Z,0.00
2023-05-03T00:12:05.658Z,0.00
2023-05-03T00:13:05.678Z,0.00
2023-05-03T00:14:05.701Z,0.00
2023-05-03T00:15:05.726Z,0.00
2023-05-03T00:16:05.761Z,0.00
2023-05-03T00:17:05.822Z,0.00
2023-05-03T00:18:05.855Z,0.00
2023-05-03T00:19:05.842Z,0.00
2023-05-03T00:20:06.044Z,0.00
2023-05-03T00:21:05.895Z,0.00
2023-05-03T00:22:05.895Z,0.00
2023-05-03T00:23:05.917Z,0.00
2023-05-03T00:24:05.946Z,0.00
2023-05-03T00:25:05.964Z,0.00
2023-05-03T00:26:06.033Z,0.00
2023-05-03T00:27:06.011Z,0.00
2023-05-03T00:28:06.043Z,0.00
2023-05-03T00:29:06.062Z,0.00
2023-05-03T00:30:06.134Z,0.00
2023-05-03T00:31:06.197Z,0.00
2023-05-03T00:32:06.139Z,0.00
2023-05-03T00:33:06.208Z,0.00
2023-05-03T00:34:06.183Z,0.00
2023-05-03T00:35:06.213Z,0.00
2023-05-03T00:36:06.232Z,0.00
2023-05-03T00:37:06.271Z,0.00
2023-05-03T00:38:06.281Z,0.00
2023-05-03T00:39:06.311Z,0.00
2023-05-03T00:40:06.446Z,0.00
2023-05-03T00:41:06.351Z,0.00
2023-05-03T00:42:06.386Z,0.00
2023-05-03T00:43:06.405Z,0.00
2023-05-03T00:44:06.431Z,0.00
2023-05-03T00:45:06.478Z,0.00
2023-05-03T00:46:16.154Z,0.00
2023-05-03T00:47:06.531Z,0.00
2023-05-03T00:48:06.581Z,0.00
2023-05-03T00:49:06.539Z,0.00
2023-05-03T00:50:06.831Z,0.00
2023-05-03T00:51:06.587Z,0.00
2023-05-03T00:52:06.637Z,0.00
2023-05-03T00:53:06.652Z,0.00
2023-05-03T00:54:06.662Z,0.00
2023-05-03T00:55:06.691Z,0.00
2023-05-03T00:56:06.710Z,0.00
2023-05-03T00:57:06.726Z,0.00
2023-05-03T00:58:06.753Z,0.00
2023-05-03T00:59:06.775Z,0.00
2023-05-03T01:00:06.800Z,0.00
2023-05-03T01:01:06.825Z,0.00
2023-05-03T01:02:06.888Z,0.00
2023-05-03T01:03:06.987Z,0.00
2023-05-03T01:04:06.983Z,0.00
2023-05-03T01:05:06.914Z,0.00
2023-05-03T01:06:06.951Z,0.00
2023-05-03T01:07:06.962Z,0.00
2023-05-03T01:08:06.990Z,0.00
2023-05-03T01:09:07.036Z,0.00
2023-05-03T01:10:07.031Z,0.00
2023-05-03T01:11:07.056Z,0.00
2023-05-03T01:12:07.085Z,0.00
2023-05-03T01:13:07.106Z,0.00
2023-05-03T01:14:07.127Z,0.00
2023-05-03T01:15:07.162Z,0.00
2023-05-03T01:16:07.204Z,0.00
2023-05-03T01:17:07.193Z,0.00
2023-05-03T01:18:07.243Z,0.00
2023-05-03T01:19:07.243Z,0.00
2023-05-03T01:20:07.282Z,0.00
2023-05-03T01:21:07.294Z,0.00
2023-05-03T01:22:07.315Z,0.00
2023-05-03T01:23:07.337Z,0.00
2023-05-03T01:24:07.367Z,0.00
2023-05-03T01:25:07.463Z,0.00
2023-05-03T01:26:07.410Z,0.00
2023-05-03T01:27:07.435Z,0.00
2023-05-03T01:28:07.471Z,0.00
2023-05-03T01:29:07.476Z,0.00
2023-05-03T01:30:07.504Z,0.00
2023-05-03T01:31:07.584Z,0.00
2023-05-03T01:32:07.596Z,0.00
2023-05-03T01:33:07.682Z,0.00
2023-05-03T01:34:07.595Z,0.00
2023-05-03T01:35:07.626Z,0.00
2023-05-03T01:36:07.676Z,0.00
2023-05-03T01:37:07.676Z,0.00
2023-05-03T01:38:07.700Z,0.00
2023-05-03T01:39:07.711Z,0.00
2023-05-03T01:40:07.736Z,0.00
2023-05-03T01:41:07.795Z,0.00
2023-05-03T01:42:07.795Z,0.00
2023-05-03T01:43:07.803Z,0.00
2023-05-03T01:44:07.832Z,0.00
2023-05-03T01:45:07.862Z,0.00
2023-05-03T01:46:07.913Z,0.00
2023-05-03T01:47:07.912Z,0.00
2023-05-03T01:48:07.979Z,0.00
2023-05-03T01:49:07.954Z,0.00
2023-05-03T01:50:07.978Z,0.00
2023-05-03T01:51:07.997Z,0.00
2023-05-03T01:52:08.021Z,0.00
2023-05-03T01:53:08.041Z,0.00
2023-05-03T01:54:08.075Z,0.00
2023-05-03T01:55:08.091Z,0.00
2023-05-03T01:56:08.112Z,0.00
2023-05-03T01:57:08.167Z,0.00
2023-05-03T01:58:08.178Z,0.00
2023-05-03T01:59:08.194Z,0.00
2023-05-03T02:00:08.231Z,0.00
2023-05-03T02:01:08.315Z,0.00
2023-05-03T02:02:08.255Z,0.00
2023-05-03T02:03:08.391Z,0.00
2023-05-03T02:04:08.310Z,0.00
2023-05-03T02:05:08.328Z,0.00
2023-05-03T02:06:08.400Z,0.00
2023-05-03T02:07:08.374Z,0.00
2023-05-03T02:08:08.405Z,0.00
2023-05-03T02:09:08.420Z,0.00
2023-05-03T02:10:08.463Z,0.00
2023-05-03T02:11:08.464Z,0.00
2023-05-03T02:12:08.490Z,0.00
2023-05-03T02:13:08.541Z,0.00
2023-05-03T02:14:08.536Z,0.00
2023-05-03T02:15:08.557Z,0.00
2023-05-03T02:16:08.592Z,0.00
2023-05-03T02:17:08.765Z,0.00
2023-05-03T02:18:08.633Z,0.00
2023-05-03T02:19:08.650Z,0.00
2023-05-03T02:20:08.674Z,0.00
2023-05-03T02:21:08.697Z,0.00
2023-05-03T02:22:08.735Z,0.00
2023-05-03T02:23:08.743Z,0.00
2023-05-03T02:24:08.775Z,0.00
2023-05-03T02:25:08.792Z,0.00
2023-05-03T02:26:08.815Z,0.00
2023-05-03T02:27:08.847Z,0.00
2023-05-03T02:28:08.862Z,0.00
2023-05-03T02:29:08.905Z,0.00
2023-05-03T02:30:08.923Z,0.00
2023-05-03T02:31:08.989Z,0.00
2023-05-03T02:32:08.987Z,0.00
2023-05-03T02:33:09.002Z,0.00
2023-05-03T02:34:09.000Z,0.00
2023-05-03T02:35:09.021Z,0.00
2023-05-03T02:36:09.051Z,0.00
2023-05-03T02:37:09.066Z,0.00
2023-05-03T02:38:09.100Z,0.00
2023-05-03T02:39:09.122Z,0.00
2023-05-03T02:40:09.140Z,0.00
2023-05-03T02:41:09.167Z,0.00
2023-05-03T02:42:09.201Z,0.00
2023-05-03T02:43:09.212Z,0.00
2023-05-03T02:44:09.233Z,0.00
2023-05-03T02:45:09.298Z,0.00
2023-05-03T02:46:09.311Z,0.00
2023-05-03T02:47:09.449Z,0.00
2023-05-03T02:48:09.418Z,0.00
2023-05-03T02:49:09.473Z,0.00
2023-05-03T02:50:09.444Z,0.00
2023-05-03T02:51:09.414Z,0.00
2023-05-03T02:52:09.416Z,0.00
2023-05-03T02:53:09.519Z,0.00
2023-05-03T02:54:09.461Z,0.00
2023-05-03T02:55:09.485Z,0.00
2023-05-03T02:56:09.507Z,0.00
2023-05-03T02:57:09.538Z,0.00
2023-05-03T02:58:09.574Z,0.00
2023-05-03T02:59:09.581Z,0.00
2023-05-03T03:00:09.616Z,0.00
2023-05-03T03:01:09.692Z,0.00
2023-05-03T03:02:09.645Z,0.00
2023-05-03T03:04:09.834Z,0.00
2023-05-03T03:05:09.715Z,0.00
2023-05-03T03:06:09.819Z,0.00
2023-05-03T03:07:09.762Z,0.00
2023-05-03T03:08:09.783Z,0.00
2023-05-03T03:09:09.811Z,0.00
2023-05-03T03:10:09.826Z,0.00
2023-05-03T03:11:09.853Z,0.00
2023-05-03T03:12:09.876Z,0.00
2023-05-03T03:13:09.901Z,0.00
2023-05-03T03:14:09.921Z,0.00
2023-05-03T03:15:09.945Z,0.00
2023-05-03T03:16:10.005Z,0.00
2023-05-03T03:17:10.018Z,0.00
2023-05-03T03:18:10.101Z,0.00
2023-05-03T03:19:10.049Z,0.00
2023-05-03T03:20:10.063Z,0.00
2023-05-03T03:21:10.106Z,0.00
2023-05-03T03:22:10.108Z,0.00
2023-05-03T03:23:10.133Z,4.00
2023-05-03T03:24:10.178Z,4.00
2023-05-03T03:25:10.215Z,0.00
2023-05-03T03:26:10.211Z,0.00
2023-05-03T03:27:10.261Z,4.00
2023-05-03T03:28:10.247Z,4.00
2023-05-03T03:29:10.471Z,4.00
2023-05-03T03:30:10.445Z,4.00
2023-05-03T03:31:10.444Z,4.00
2023-05-03T03:32:10.439Z,4.00
2023-05-03T03:33:10.481Z,4.00
2023-05-03T03:34:10.385Z,4.00
2023-05-03T03:35:10.439Z,8.00
2023-05-03T03:36:10.433Z,12.00
2023-05-03T03:37:10.456Z,12.00
2023-05-03T03:38:10.476Z,16.00
2023-05-03T03:39:10.502Z,16.00
2023-05-03T03:40:10.523Z,16.00
2023-05-03T03:41:10.559Z,24.00
2023-05-03T03:42:10.569Z,24.00
2023-05-03T03:43:10.598Z,28.00
2023-05-03T03:44:10.616Z,32.00
2023-05-03T03:45:10.638Z,40.00
2023-05-03T03:46:10.681Z,48.00
2023-05-03T03:47:10.759Z,52.00
2023-05-03T03:48:10.739Z,60.00
2023-05-03T03:49:10.748Z,72.00
2023-05-03T03:50:10.753Z,80.00
2023-05-03T03:51:10.775Z,88.00
2023-05-03T03:52:10.818Z,104.00
2023-05-03T03:53:10.821Z,116.00
2023-05-03T03:54:10.849Z,132.00
2023-05-03T03:55:10.866Z,144.00
2023-05-03T03:56:10.894Z,164.00
2023-05-03T03:57:10.913Z,180.00
2023-05-03T03:58:10.943Z,200.00
2023-05-03T03:59:10.959Z,220.00
2023-05-03T04:00:10.986Z,244.00
2023-05-03T04:01:11.006Z,268.00
2023-05-03T04:02:11.048Z,288.00
2023-05-03T04:03:11.236Z,312.00
2023-05-03T04:04:11.198Z,340.00
2023-05-03T04:05:11.114Z,364.00
2023-05-03T04:06:11.171Z,392.00
2023-05-03T04:07:11.146Z,420.00
2023-05-03T04:08:11.163Z,452.00
2023-05-03T04:09:11.187Z,488.00
2023-05-03T04:10:11.214Z,524.00
2023-05-03T04:11:11.233Z,564.00
2023-05-03T04:12:11.258Z,604.00
2023-05-03T04:13:11.282Z,648.00
2023-05-03T04:14:11.303Z,696.00
2023-05-03T04:15:11.323Z,748.00
2023-05-03T04:16:11.345Z,792.00
2023-05-03T04:17:11.401Z,848.00
2023-05-03T04:18:11.474Z,908.00
2023-05-03T04:19:11.429Z,960.00
2023-05-03T04:20:11.436Z,1016.00
2023-05-03T04:21:11.480Z,1076.00
2023-05-03T04:22:11.501Z,1128.00
2023-05-03T04:23:11.507Z,1184.00
2023-05-03T04:24:11.530Z,1240.00
2023-05-03T04:25:11.563Z,1292.00
2023-05-03T04:26:23.549Z,1344.00
2023-05-03T04:27:11.600Z,1392.00
2023-05-03T04:28:11.628Z,1444.00
2023-05-03T04:29:11.684Z,1488.00
2023-05-03T04:30:11.665Z,1528.00
2023-05-03T04:31:11.713Z,1584.00
2023-05-03T04:32:11.714Z,1644.00
2023-05-03T04:33:11.804Z,1716.00
2023-05-03T04:34:11.758Z,1788.00
2023-05-03T04:35:11.784Z,1856.00
2023-05-03T04:36:11.807Z,1936.00
2023-05-03T04:37:11.849Z,2008.00
2023-05-03T04:38:11.873Z,2040.00
2023-05-03T04:39:11.876Z,2008.00
2023-05-03T04:40:11.896Z,2148.00
2023-05-03T04:41:14.027Z,2208.00
2023-05-03T04:42:11.944Z,2240.00
2023-05-03T04:43:11.966Z,2436.00
2023-05-03T04:44:11.988Z,2388.00
2023-05-03T04:45:12.048Z,2512.00
2023-05-03T04:46:12.080Z,2728.00
2023-05-03T04:47:12.059Z,3532.00
2023-05-03T04:48:12.149Z,3880.00
2023-05-03T04:49:12.116Z,3548.00
2023-05-03T04:50:12.131Z,3748.00
2023-05-03T04:51:12.158Z,3644.00
2023-05-03T04:52:12.176Z,3612.00
2023-05-03T04:53:12.218Z,4412.00
2023-05-03T04:54:12.262Z,7888.00
2023-05-03T04:55:12.248Z,8704.00
2023-05-03T04:56:12.267Z,5056.00
2023-05-03T04:57:12.292Z,3524.00
2023-05-03T04:58:12.314Z,3652.00
2023-05-03T04:59:12.341Z,3800.00
2023-05-03T05:00:12.371Z,3824.00
2023-05-03T05:01:12.429Z,3924.00
2023-05-03T05:02:12.406Z,4000.00
2023-05-03T05:03:12.525Z,4044.00
2023-05-03T05:04:12.452Z,4344.00
2023-05-03T05:05:12.483Z,4216.00
2023-05-03T05:06:12.683Z,4108.00
2023-05-03T05:07:12.529Z,4140.00
2023-05-03T05:08:12.547Z,4876.00
2023-05-03T05:09:12.588Z,5440.00
2023-05-03T05:10:12.597Z,5520.00
2023-05-03T05:11:12.617Z,5040.00
2023-05-03T05:12:12.639Z,4672.00
2023-05-03T05:13:12.668Z,5080.00
2023-05-03T05:14:12.682Z,5252.00
2023-05-03T05:15:12.715Z,5104.00
2023-05-03T05:16:12.733Z,5096.00
2023-05-03T05:17:12.795Z,4848.00
2023-05-03T05:18:12.828Z,4812.00
2023-05-03T05:19:12.812Z,4828.00
2023-05-03T05:20:12.827Z,4908.00
2023-05-03T05:21:12.863Z,5052.00
2023-05-03T05:22:12.873Z,5168.00
2023-05-03T05:23:12.904Z,5556.00
2023-05-03T05:24:12.921Z,6376.00
2023-05-03T05:25:12.970Z,6144.00
2023-05-03T05:26:12.972Z,5784.00
2023-05-03T05:27:12.992Z,5796.00
2023-05-03T05:28:13.016Z,5544.00
2023-05-03T05:29:13.045Z,5516.00
2023-05-03T05:30:13.070Z,5752.00
2023-05-03T05:31:13.138Z,7192.00
2023-05-03T05:32:13.114Z,14812.00
2023-05-03T05:33:13.161Z,13668.00
2023-05-03T05:34:13.166Z,7508.00
2023-05-03T05:35:13.187Z,7100.00
2023-05-03T05:36:13.207Z,6752.00
2023-05-03T05:37:13.233Z,6792.00
2023-05-03T05:38:13.256Z,8032.00
2023-05-03T05:39:13.283Z,8984.00
2023-05-03T05:40:13.317Z,14856.00
2023-05-03T05:41:13.352Z,21280.00
2023-05-03T05:42:13.352Z,14028.00
2023-05-03T05:43:13.386Z,9720.00
2023-05-03T05:44:13.406Z,8692.00
2023-05-03T05:45:13.432Z,10848.00
2023-05-03T05:46:13.456Z,10212.00
2023-05-03T05:47:13.518Z,11932.00
2023-05-03T05:48:13.534Z,13040.00
2023-05-03T05:49:13.530Z,11200.00
2023-05-03T05:50:18.277Z,8252.00
2023-05-03T05:51:13.585Z,7852.00
2023-05-03T05:52:13.610Z,9024.00
2023-05-03T05:53:13.630Z,16036.00
2023-05-03T05:54:13.655Z,17600.00
2023-05-03T05:55:13.680Z,17824.00
2023-05-03T05:56:13.709Z,18688.00
2023-05-03T05:57:13.809Z,19552.00
2023-05-03T05:58:13.795Z,27520.00
2023-05-03T05:59:13.786Z,44768.00
2023-05-03T06:00:13.829Z,44448.00
2023-05-03T06:01:13.847Z,36896.00
2023-05-03T06:02:13.910Z,26944.00
2023-05-03T06:03:13.943Z,22208.00
2023-05-03T06:04:13.923Z,35360.00
2023-05-03T06:05:14.037Z,46432.00
2023-05-03T06:06:14.003Z,54592.00
2023-05-03T06:07:14.206Z,70496.00
2023-05-03T06:08:14.030Z,76800.00
2023-05-03T06:09:24.292Z,77504.00
2023-05-03T06:10:14.084Z,78208.00
2023-05-03T06:11:14.155Z,78784.00
2023-05-03T06:12:14.141Z,78656.00
2023-05-03T06:13:14.266Z,78816.00
2023-05-03T06:14:14.198Z,80736.00
2023-05-03T06:15:14.235Z,80256.00
2023-05-03T06:16:14.257Z,80864.00
2023-05-03T06:17:14.329Z,80832.00
2023-05-03T06:18:14.324Z,81248.00
2023-05-03T06:19:14.383Z,79680.00
2023-05-03T06:20:14.390Z,81920.00
2023-05-03T06:21:14.406Z,82752.00
2023-05-03T06:22:14.441Z,79776.00
2023-05-03T06:23:14.475Z,78496.00
2023-05-03T06:24:14.509Z,83424.00
2023-05-03T06:25:16.195Z,85088.00
2023-05-03T06:26:17.188Z,82976.00
2023-05-03T06:27:14.600Z,82976.00
2023-05-03T06:28:14.626Z,82592.00
2023-05-03T06:29:14.682Z,84544.00
2023-05-03T06:30:16.103Z,84448.00
2023-05-03T06:31:14.791Z,86144.00
2023-05-03T06:32:14.762Z,86272.00
2023-05-03T06:34:14.819Z,84416.00
2023-05-03T06:35:17.472Z,81696.00
2023-05-03T06:37:17.487Z,87936.00
2023-05-03T06:38:17.516Z,86304.00
2023-05-03T06:39:17.544Z,85376.00
2023-05-03T06:40:17.882Z,85248.00
2023-05-03T06:42:00.776Z,82528.00
2023-05-03T06:43:00.199Z,79648.00
2023-05-03T06:44:00.236Z,80256.00
2023-05-03T06:45:00.296Z,80224.00
2023-05-03T06:46:18.274Z,80384.00
2023-05-03T06:47:00.476Z,81728.00
2023-05-03T06:48:00.388Z,79232.00
2023-05-03T06:49:00.464Z,81376.00
2023-05-03T06:50:00.514Z,82304.00
2023-05-03T06:51:00.503Z,78432.00
2023-05-03T06:52:00.515Z,80800.00
2023-05-03T06:53:00.562Z,87712.00
2023-05-03T06:54:00.583Z,90176.00
2023-05-03T06:55:00.650Z,89792.00
2023-05-03T06:56:00.653Z,85632.00
2023-05-03T06:57:00.690Z,85376.00
2023-05-03T06:58:00.738Z,82624.00
2023-05-03T06:59:03.795Z,85504.00
2023-05-03T07:00:01.011Z,85216.00
2023-05-03T07:01:00.883Z,86336.00
2023-05-03T07:04:01.022Z,87776.00
2023-05-03T07:05:00.978Z,87168.00
2023-05-03T07:06:01.613Z,86400.00
2023-05-03T07:07:02.425Z,84064.00
2023-05-03T07:08:01.105Z,81760.00
2023-05-03T07:09:01.134Z,82464.00
2023-05-03T07:10:01.660Z,85024.00
2023-05-03T07:11:01.206Z,84128.00
2023-05-03T07:12:04.051Z,84416.00
2023-05-03T07:13:01.266Z,88640.00
2023-05-03T07:14:01.301Z,90336.00
2023-05-03T07:15:01.338Z,88512.00
2023-05-03T07:16:03.588Z,85856.00
2023-05-03T07:17:01.532Z,84320.00
2023-05-03T07:18:04.525Z,77120.00
2023-05-03T07:19:01.508Z,79392.00
2023-05-03T07:21:06.612Z,76928.00
2023-05-03T07:23:19.235Z,79072.00
2023-05-03T07:24:20.287Z,78112.00
2023-05-03T07:25:19.382Z,78880.00
2023-05-03T07:26:19.350Z,81984.00
2023-05-03T07:27:19.392Z,84128.00
2023-05-03T07:28:19.423Z,82048.00
2023-05-03T07:29:19.669Z,83872.00
2023-05-03T07:30:19.527Z,85600.00
2023-05-03T07:33:27.291Z,83520.00
2023-05-03T07:34:27.226Z,84384.00
2023-05-03T07:35:27.275Z,83872.00
2023-05-03T07:36:27.304Z,77472.00
2023-05-03T07:37:27.342Z,83360.00
2023-05-03T07:38:27.392Z,83008.00
2023-05-03T07:39:27.428Z,82144.00
2023-05-03T07:40:27.453Z,81728.00
2023-05-03T07:41:27.491Z,82624.00
2023-05-03T07:42:27.537Z,84928.00
2023-05-03T07:43:27.574Z,86080.00
2023-05-03T07:44:27.605Z,82816.00
2023-05-03T07:45:27.833Z,82080.00
2023-05-03T07:46:27.692Z,81920.00
2023-05-03T07:47:27.741Z,82464.00
2023-05-03T07:48:27.757Z,81088.00
2023-05-03T07:49:27.816Z,62048.00
2023-05-03T07:50:27.843Z,79680.00
2023-05-03T07:51:27.870Z,75840.00
2023-05-03T07:52:27.907Z,71168.00
2023-05-03T07:53:27.945Z,70848.00
2023-05-03T07:54:27.990Z,69600.00
2023-05-03T07:55:28.021Z,67968.00
2023-05-03T07:56:28.060Z,71520.00
2023-05-03T07:57:28.099Z,75328.00
2023-05-03T07:58:38.882Z,77248.00
2023-05-03T07:59:28.188Z,74560.00
2023-05-03T08:00:28.227Z,75392.00
2023-05-03T08:01:28.252Z,75840.00
2023-05-03T08:02:28.399Z,73504.00
2023-05-03T08:03:28.516Z,74528.00
2023-05-03T08:04:28.653Z,74304.00
2023-05-03T08:05:28.550Z,77600.00
2023-05-03T08:06:28.459Z,75456.00
2023-05-03T08:08:53.666Z,77504.00
2023-05-03T08:11:06.511Z,74304.00
2023-05-03T08:12:06.549Z,76800.00
2023-05-03T08:13:06.598Z,75520.00
2023-05-03T08:16:35.347Z,72000.00
2023-05-03T08:18:37.016Z,71968.00
2023-05-03T08:19:34.430Z,72640.00
2023-05-03T08:20:34.497Z,72000.00
2023-05-03T08:22:22.662Z,66816.00
2023-05-03T08:23:22.297Z,68928.00
2023-05-03T08:24:22.335Z,69568.00
2023-05-03T08:25:22.375Z,69216.00
2023-05-03T08:26:22.409Z,68768.00
2023-05-03T08:27:22.452Z,73440.00
2023-05-03T08:28:22.498Z,70688.00
2023-05-03T08:29:22.522Z,68288.00
2023-05-03T08:30:22.562Z,70848.00
2023-05-03T08:31:22.694Z,70528.00
2023-05-03T08:32:22.640Z,69440.00
2023-05-03T08:33:22.675Z,66496.00
2023-05-03T08:34:22.710Z,61568.00
2023-05-03T08:35:22.752Z,67296.00
2023-05-03T08:36:22.813Z,69312.00
2023-05-03T08:37:22.830Z,66336.00
2023-05-03T08:38:22.864Z,65536.00
2023-05-03T08:39:22.911Z,61344.00
2023-05-03T08:40:22.950Z,57504.00
2023-05-03T08:41:22.976Z,59584.00
2023-05-03T08:42:25.192Z,58240.00
2023-05-03T08:43:24.069Z,52640.00
2023-05-03T08:44:23.084Z,60096.00
2023-05-03T08:45:23.123Z,58976.00
2023-05-03T08:46:23.191Z,60640.00
2023-05-03T08:47:23.193Z,60224.00
2023-05-03T08:48:23.252Z,47584.00
2023-05-03T08:49:23.290Z,36544.00
2023-05-03T08:50:23.314Z,28224.00
2023-05-03T08:51:23.396Z,24544.00
2023-05-03T08:52:23.470Z,23936.00
2023-05-03T08:53:23.416Z,23264.00
2023-05-03T08:54:23.450Z,22912.00
2023-05-03T08:55:23.486Z,22880.00
2023-05-03T08:56:23.523Z,23392.00
2023-05-03T08:57:23.564Z,23648.00
2023-05-03T08:58:23.599Z,23872.00
2023-05-03T08:59:23.639Z,24768.00
2023-05-03T09:00:23.670Z,26272.00
2023-05-03T09:01:23.815Z,28288.00
2023-05-03T09:02:23.801Z,30112.00
2023-05-03T09:03:23.896Z,29408.00
2023-05-03T09:04:23.943Z,27424.00
2023-05-03T09:05:23.858Z,24032.00
2023-05-03T09:06:23.996Z,23008.00
2023-05-03T09:07:23.937Z,22592.00
2023-05-03T09:08:24.036Z,21312.00
2023-05-03T09:09:24.003Z,20864.00
2023-05-03T09:10:24.053Z,20864.00
2023-05-03T09:11:24.080Z,20800.00
2023-05-03T09:12:24.115Z,19840.00
2023-05-03T09:13:24.153Z,19456.00
2023-05-03T09:14:24.189Z,18688.00
2023-05-03T09:15:24.224Z,18400.00
2023-05-03T09:16:24.325Z,18304.00
2023-05-03T09:17:24.298Z,18272.00
2023-05-03T09:18:24.338Z,17856.00
2023-05-03T09:19:24.370Z,17472.00
2023-05-03T09:20:24.409Z,17152.00
2023-05-03T09:21:24.448Z,17088.00
2023-05-03T09:22:24.491Z,16960.00
2023-05-03T09:23:24.525Z,16640.00
2023-05-03T09:24:24.591Z,16704.00
2023-05-03T09:25:24.599Z,16448.00
2023-05-03T09:26:24.625Z,16640.00
2023-05-03T09:27:24.666Z,16512.00
2023-05-03T09:28:24.698Z,15636.00
2023-05-03T09:29:24.733Z,15404.00
2023-05-03T09:30:24.769Z,15556.00
2023-05-03T09:31:24.828Z,15396.00
2023-05-03T09:32:24.858Z,15096.00
2023-05-03T09:33:24.877Z,14880.00
2023-05-03T09:34:24.910Z,14708.00
2023-05-03T09:35:24.948Z,14588.00
2023-05-03T09:36:24.988Z,15004.00
2023-05-03T09:37:25.023Z,14924.00
2023-05-03T09:38:25.053Z,14972.00
2023-05-03T09:39:25.088Z,14856.00
2023-05-03T09:40:25.271Z,15100.00
2023-05-03T09:41:25.158Z,15376.00
2023-05-03T09:42:25.192Z,15088.00
2023-05-03T09:43:25.224Z,15292.00
2023-05-03T09:44:25.257Z,15648.00
2023-05-03T09:45:25.295Z,16544.00
2023-05-03T09:46:25.584Z,18112.00
2023-05-03T09:47:25.472Z,19232.00
2023-05-03T09:48:25.396Z,20512.00
2023-05-03T09:49:25.430Z,23296.00
2023-05-03T09:50:25.474Z,25088.00
2023-05-03T09:51:25.495Z,30368.00
2023-05-03T09:52:25.535Z,33152.00
2023-05-03T09:53:25.566Z,26880.00
2023-05-03T09:54:25.758Z,23104.00
2023-05-03T09:55:25.632Z,21728.00
2023-05-03T09:56:25.685Z,18112.00
2023-05-03T09:57:25.702Z,16384.00
2023-05-03T09:58:25.734Z,16032.00
2023-05-03T09:59:25.774Z,16032.00
2023-05-03T10:00:25.812Z,14764.00
2023-05-03T10:01:25.910Z,13600.00
2023-05-03T10:02:25.930Z,12844.00
2023-05-03T10:03:25.909Z,12432.00
2023-05-03T10:04:26.028Z,12088.00
2023-05-03T10:05:25.970Z,11648.00
2023-05-03T10:06:26.076Z,11160.00
2023-05-03T10:07:26.059Z,11072.00
2023-05-03T10:08:26.068Z,10880.00
2023-05-03T10:09:26.098Z,10620.00
2023-05-03T10:10:26.136Z,10372.00
2023-05-03T10:11:26.170Z,10276.00
2023-05-03T10:12:26.214Z,10248.00
2023-05-03T10:13:26.235Z,10156.00
2023-05-03T10:14:27.288Z,10168.00
2023-05-03T10:15:26.300Z,10120.00
2023-05-03T10:16:26.472Z,9672.00
2023-05-03T10:17:42.919Z,9408.00
2023-05-03T10:18:26.448Z,9160.00
2023-05-03T10:19:27.669Z,8980.00
2023-05-03T10:20:26.465Z,9136.00
2023-05-03T10:21:26.500Z,9152.00
2023-05-03T10:23:26.565Z,8896.00
2023-05-03T10:24:26.658Z,8984.00
2023-05-03T10:25:26.841Z,8920.00
2023-05-03T10:26:26.656Z,8768.00
2023-05-03T10:27:26.703Z,8752.00
2023-05-03T10:28:26.771Z,8548.00
2023-05-03T10:30:26.808Z,8436.00
2023-05-03T10:32:26.890Z,8396.00
2023-05-03T10:33:26.880Z,8284.00
2023-05-03T10:34:26.911Z,8340.00
2023-05-03T10:35:26.947Z,8296.00
2023-05-03T10:36:32.886Z,7884.00
2023-05-03T10:37:27.067Z,7816.00
2023-05-03T10:38:27.041Z,7768.00
2023-05-03T10:39:27.088Z,8064.00
2023-05-03T10:40:27.103Z,7892.00
2023-05-03T10:41:27.139Z,7740.00
2023-05-03T10:42:27.170Z,7572.00
2023-05-03T10:43:27.198Z,7660.00
2023-05-03T10:44:27.279Z,7592.00
2023-05-03T10:45:27.267Z,7408.00
2023-05-03T10:46:27.339Z,7280.00
2023-05-03T10:47:27.358Z,7548.00
2023-05-03T10:48:27.363Z,7560.00
2023-05-03T10:49:27.400Z,7812.00
2023-05-03T10:50:27.441Z,8128.00
2023-05-03T10:51:27.464Z,8140.00
2023-05-03T10:52:27.493Z,8212.00
2023-05-03T10:53:27.525Z,8180.00
2023-05-03T10:54:27.558Z,7960.00
2023-05-03T10:55:27.601Z,7840.00
2023-05-03T10:56:27.622Z,7676.00
2023-05-03T10:57:27.657Z,7896.00
2023-05-03T10:58:27.686Z,8516.00
2023-05-03T10:59:27.719Z,8568.00
2023-05-03T11:00:27.795Z,8068.00
2023-05-03T11:01:28.228Z,7932.00
2023-05-03T11:02:27.868Z,8400.00
2023-05-03T11:03:27.848Z,9140.00
2023-05-03T11:04:29.147Z,9304.00
2023-05-03T11:05:27.910Z,8616.00
2023-05-03T11:06:27.994Z,7296.00
2023-05-03T11:07:27.972Z,6504.00
2023-05-03T11:08:28.001Z,6180.00
2023-05-03T11:09:28.047Z,6048.00
2023-05-03T11:10:28.077Z,6012.00
2023-05-03T11:11:28.118Z,5972.00
2023-05-03T11:12:30.750Z,5928.00
2023-05-03T11:13:28.398Z,5908.00
2023-05-03T11:14:28.187Z,5868.00
2023-05-03T11:15:28.219Z,5864.00
2023-05-03T11:16:28.426Z,5848.00
2023-05-03T11:17:28.309Z,5800.00
2023-05-03T11:18:28.312Z,5752.00
2023-05-03T11:20:30.942Z,5804.00
2023-05-03T11:21:30.974Z,5784.00
2023-05-03T11:22:31.007Z,5732.00
2023-05-03T11:23:31.037Z,5736.00
2023-05-03T11:24:31.095Z,5712.00
2023-05-03T11:25:31.097Z,5672.00
2023-05-03T11:26:31.129Z,5672.00
2023-05-03T11:27:31.167Z,5608.00
2023-05-03T11:28:31.193Z,5540.00
2023-05-03T11:29:31.232Z,5416.00
2023-05-03T11:30:31.264Z,5152.00
2023-05-03T11:31:31.980Z,4932.00
2023-05-03T11:32:31.331Z,4716.00
2023-05-03T11:33:31.346Z,4608.00
2023-05-03T11:34:31.380Z,4552.00
2023-05-03T11:35:31.424Z,4520.00
2023-05-03T11:36:31.437Z,4508.00
2023-05-03T11:37:31.471Z,4508.00
2023-05-03T11:38:31.501Z,4492.00
2023-05-03T11:39:31.536Z,4460.00
2023-05-03T11:40:31.583Z,4368.00
2023-05-03T11:41:31.604Z,4340.00
2023-05-03T11:42:31.637Z,4448.00
2023-05-03T11:43:31.715Z,4444.00
2023-05-03T11:44:31.713Z,4444.00
2023-05-03T11:45:31.932Z,4432.00
2023-05-03T11:46:31.776Z,4424.00
2023-05-03T11:47:31.877Z,4432.00
2023-05-03T11:48:31.906Z,4432.00
2023-05-03T11:49:31.841Z,4416.00
2023-05-03T11:50:31.896Z,4392.00
2023-05-03T11:51:31.922Z,4352.00
2023-05-03T11:52:31.937Z,4268.00
2023-05-03T11:53:32.171Z,4096.00
2023-05-03T11:54:32.337Z,4092.00
2023-05-03T11:55:32.033Z,4120.00
2023-05-03T11:56:32.056Z,4260.00
2023-05-03T11:57:32.346Z,4304.00
2023-05-03T11:58:32.123Z,4336.00
2023-05-03T11:59:32.153Z,4388.00
2023-05-03T12:00:32.189Z,4320.00
2023-05-03T12:01:32.237Z,4412.00
2023-05-03T12:04:33.413Z,4504.00
2023-05-03T12:05:32.993Z,4484.00
2023-05-03T12:06:33.467Z,4468.00
2023-05-03T12:07:32.597Z,4440.00
2023-05-03T12:08:35.570Z,4404.00
2023-05-03T12:09:32.613Z,4372.00
2023-05-03T12:10:33.045Z,4316.00
2023-05-03T12:13:20.653Z,4316.00
2023-05-03T12:14:20.246Z,4320.00
2023-05-03T12:15:21.502Z,4328.00
2023-05-03T12:16:20.328Z,4328.00
2023-05-03T12:17:20.399Z,4348.00
2023-05-03T12:18:20.533Z,4360.00
2023-05-03T12:19:23.144Z,4364.00
2023-05-03T12:22:25.693Z,4364.00
2023-05-03T12:23:20.928Z,4304.00
2023-05-03T12:24:20.896Z,4320.00
2023-05-03T12:25:21.129Z,4328.00
2023-05-03T12:26:20.596Z,4304.00
2023-05-03T12:27:22.523Z,4272.00
2023-05-03T12:28:21.392Z,4256.00
2023-05-03T12:29:22.924Z,4232.00
2023-05-03T12:30:23.283Z,4252.00
2023-05-03T12:31:22.689Z,4272.00
2023-05-03T12:32:22.815Z,4284.00
2023-05-03T12:33:22.571Z,4256.00
2023-05-03T12:34:34.097Z,4268.00
2023-05-03T12:35:21.193Z,4256.00
2023-05-03T12:36:25.838Z,4256.00
2023-05-03T12:37:22.397Z,4236.00
2023-05-03T12:38:23.569Z,4232.00
2023-05-03T12:39:22.108Z,4224.00
2023-05-03T12:40:33.382Z,4208.00
2023-05-03T12:41:52.283Z,4216.00
2023-05-03T12:42:22.247Z,4224.00
2023-05-03T12:43:21.091Z,4252.00
2023-05-03T12:44:23.202Z,4248.00
2023-05-03T12:45:21.744Z,4240.00
2023-05-03T12:46:34.109Z,4248.00